Time;durP1;ratioP1;P1;durP2;ratioP2;P2;SDS_P1;SDS_P2;PMS_P1;PMS_P2;Temp;Humidity;BMP_temperature;BMP_pressure;BME280_temperature;BME280_humidity;BME280_pressure;Samples;Min_cycle;Max_cycle;Signal;HPM_P1;HPM_P2
2023/04/10 00:01:39;;;;;;;66.60;35.10;;;;;;;;;;5059697;28;20086;-72
2023/04/10 00:04:05;;;;;;;67.50;36.60;;;;;;;;;;5061738;28;20029;-71
2023/04/10 00:06:31;;;;;;;71.25;36.33;;;;;;;;;;5052204;28;20438;-69
2023/04/10 00:08:57;;;;;;;73.63;36.20;;;;;;;;;;5052486;28;20365;-71
2023/04/10 00:11:26;;;;;;;64.93;36.55;;;;;;;;;;5052690;28;20381;-71
2023/04/10 00:13:53;;;;;;;69.25;37.30;;;;;;;;;;5052147;28;20103;-70
2023/04/10 00:16:19;;;;;;;66.82;36.95;;;;;;;;;;5052147;28;20463;-70
2023/04/10 00:18:46;;;;;;;69.35;37.45;;;;;;;;;;5052016;28;20028;-71
2023/04/10 00:21:12;;;;;;;65.05;37.72;;;;;;;;;;5052105;28;20021;-71
2023/04/10 00:23:38;;;;;;;73.50;37.85;;;;;;;;;;5051725;28;20320;-71
2023/04/10 00:26:04;;;;;;;67.97;38.22;;;;;;;;;;5052031;28;20032;-70
2023/04/10 00:28:30;;;;;;;66.85;36.78;;;;;;;;;;5051819;28;20433;-70
2023/04/10 00:30:56;;;;;;;68.68;38.42;;;;;;;;;;5051932;28;20021;-70
2023/04/10 00:33:22;;;;;;;63.70;35.55;;;;;;;;;;5051987;28;20039;-70
2023/04/10 00:35:47;;;;;;;69.20;38.13;;;;;;;;;;5051794;28;20017;-70
2023/04/10 00:38:13;;;;;;;67.05;37.97;;;;;;;;;;5051691;28;20421;-71
2023/04/10 00:40:40;;;;;;;76.97;40.95;;;;;;;;;;5051827;28;20100;-70
2023/04/10 00:43:06;;;;;;;72.25;38.70;;;;;;;;;;5051589;28;20119;-72
2023/04/10 00:45:32;;;;;;;70.75;39.17;;;;;;;;;;5051860;28;20490;-70
2023/04/10 00:47:58;;;;;;;75.18;39.70;;;;;;;;;;5051301;28;20025;-71
2023/04/10 00:50:24;;;;;;;70.25;38.90;;;;;;;;;;5051734;28;20032;-71
2023/04/10 00:52:50;;;;;;;69.30;38.83;;;;;;;;;;5051526;28;20032;-70
2023/04/10 00:55:16;;;;;;;72.68;38.42;;;;;;;;;;5051707;28;20420;-71
2023/04/10 00:57:45;;;;;;;70.15;38.08;;;;;;;;;;5051568;28;20037;-71
2023/04/10 01:00:11;;;;;;;71.18;37.65;;;;;;;;;;5051421;28;20025;-70
2023/04/10 01:02:37;;;;;;;69.70;37.55;;;;;;;;;;5051301;28;20025;-70
2023/04/10 01:05:04;;;;;;;68.47;37.90;;;;;;;;;;5051319;28;20074;-69
2023/04/10 01:07:44;;;;;;;71.68;37.78;;;;;;;;;;5051296;28;20063;-71
2023/04/10 01:10:14;;;;;;;70.45;37.92;;;;;;;;;;5051517;28;20032;-70
2023/04/10 01:12:51;;;;;;;75.75;39.58;;;;;;;;;;5033573;28;20021;-71
2023/04/10 01:15:19;;;;;;;67.13;37.67;;;;;;;;;;5051379;28;20029;-70
2023/04/10 01:17:51;;;;;;;72.57;38.08;;;;;;;;;;5051349;28;20073;-70
2023/04/10 01:20:25;;;;;;;73.97;37.58;;;;;;;;;;5051466;28;20036;-70
2023/04/10 01:22:51;;;;;;;69.35;38.78;;;;;;;;;;5051191;28;20364;-70
2023/04/10 01:25:37;;;;;;;72.80;38.10;;;;;;;;;;5051370;28;20033;-70
2023/04/10 01:28:03;;;;;;;73.53;37.53;;;;;;;;;;5051061;28;20052;-70
2023/04/10 01:30:29;;;;;;;66.18;37.63;;;;;;;;;;5051292;28;20474;-70
2023/04/10 01:32:57;;;;;;;75.90;39.63;;;;;;;;;;5051268;28;20025;-70
2023/04/10 01:35:24;;;;;;;69.90;39.17;;;;;;;;;;5051354;28;20556;-70
2023/04/10 01:37:50;;;;;;;69.72;38.47;;;;;;;;;;5051573;28;20025;-71
2023/04/10 01:40:18;;;;;;;75.60;39.22;;;;;;;;;;5051336;28;20029;-71
2023/04/10 01:42:50;;;;;;;73.60;39.05;;;;;;;;;;5050893;28;20025;-71
2023/04/10 01:45:27;;;;;;;71.80;39.00;;;;;;;;;;5051137;28;20085;-70
2023/04/10 01:47:54;;;;;;;69.93;36.92;;;;;;;;;;5051117;28;20082;-70
2023/04/10 01:50:24;;;;;;;72.78;38.75;;;;;;;;;;5051105;28;20391;-72
2023/04/10 01:52:51;;;;;;;68.97;38.40;;;;;;;;;;5050846;28;20028;-70
2023/04/10 01:55:18;;;;;;;72.25;37.85;;;;;;;;;;5051073;28;20522;-71
2023/04/10 01:57:47;;;;;;;75.72;39.22;;;;;;;;;;5050852;28;20509;-70
2023/04/10 02:00:13;;;;;;;73.90;39.00;;;;;;;;;;5052706;28;20028;-71
2023/04/10 02:02:41;;;;;;;68.88;38.00;;;;;;;;;;5054365;28;20033;-70
2023/04/10 02:05:09;;;;;;;71.68;37.13;;;;;;;;;;5054764;28;20021;-69
2023/04/10 02:07:38;;;;;;;73.07;37.92;;;;;;;;;;5054451;28;20485;-70
2023/04/10 02:10:10;;;;;;;72.90;38.65;;;;;;;;;;5054610;28;20506;-70
2023/04/10 02:12:39;;;;;;;72.45;39.42;;;;;;;;;;5054298;28;20024;-70
2023/04/10 02:15:07;;;;;;;70.10;37.88;;;;;;;;;;5054545;28;20024;-71
2023/04/10 02:17:34;;;;;;;70.18;38.17;;;;;;;;;;5054385;28;20496;-71
2023/04/10 02:20:00;;;;;;;69.68;37.58;;;;;;;;;;5054802;28;20378;-70
2023/04/10 02:22:27;;;;;;;70.82;38.65;;;;;;;;;;5054413;28;20363;-71
2023/04/10 02:24:53;;;;;;;72.85;39.63;;;;;;;;;;5054349;28;20545;-71
2023/04/10 02:27:32;;;;;;;69.82;38.05;;;;;;;;;;5054202;28;20075;-70
2023/04/10 02:29:58;;;;;;;69.57;38.38;;;;;;;;;;5054217;28;20028;-70
2023/04/10 02:32:24;;;;;;;76.78;38.97;;;;;;;;;;5054025;28;20108;-70
2023/04/10 02:34:50;;;;;;;73.53;37.85;;;;;;;;;;5054338;28;20116;-69
2023/04/10 02:37:16;;;;;;;74.13;39.00;;;;;;;;;;5054975;28;20044;-69
2023/04/10 02:39:42;;;;;;;72.40;39.13;;;;;;;;;;5055081;28;20021;-70
2023/04/10 02:42:08;;;;;;;72.25;38.90;;;;;;;;;;5054547;28;20434;-70
2023/04/10 02:44:34;;;;;;;76.03;39.13;;;;;;;;;;5055022;28;20028;-70
2023/04/10 02:47:00;;;;;;;74.30;39.15;;;;;;;;;;5054473;28;20461;-70
2023/04/10 02:49:26;;;;;;;68.55;38.08;;;;;;;;;;5055111;28;20028;-70
2023/04/10 02:51:52;;;;;;;74.28;40.28;;;;;;;;;;5054755;28;20021;-70
2023/04/10 02:54:18;;;;;;;75.38;38.85;;;;;;;;;;5054695;28;20378;-72
2023/04/10 02:56:44;;;;;;;73.93;40.40;;;;;;;;;;5054953;28;20021;-70
2023/04/10 02:59:11;;;;;;;75.15;39.67;;;;;;;;;;5054939;28;20017;-71
2023/04/10 03:01:38;;;;;;;82.57;41.60;;;;;;;;;;5057621;28;20016;-70
2023/04/10 03:04:05;;;;;;;78.35;41.75;;;;;;;;;;5057469;28;20021;-71
2023/04/10 03:06:31;;;;;;;76.53;40.38;;;;;;;;;;5053956;28;20021;-71
2023/04/10 03:08:57;;;;;;;74.05;39.40;;;;;;;;;;5053462;28;20028;-71
2023/04/10 03:11:23;;;;;;;81.43;41.65;;;;;;;;;;5053167;28;20103;-72
2023/04/10 03:13:50;;;;;;;76.28;40.75;;;;;;;;;;5052888;28;20033;-71
2023/04/10 03:16:19;;;;;;;77.72;42.42;;;;;;;;;;5053295;28;20437;-71
2023/04/10 03:18:45;;;;;;;78.03;41.20;;;;;;;;;;5053268;28;20108;-71
2023/04/10 03:21:11;;;;;;;77.90;41.35;;;;;;;;;;5053197;28;20021;-71
2023/04/10 03:23:37;;;;;;;78.25;41.03;;;;;;;;;;5052943;28;20033;-72
2023/04/10 03:26:03;;;;;;;76.50;40.78;;;;;;;;;;5053353;28;20374;-71
2023/04/10 03:28:31;;;;;;;71.35;41.10;;;;;;;;;;5053186;28;20036;-72
2023/04/10 03:30:57;;;;;;;78.07;40.22;;;;;;;;;;5052984;28;20024;-71
2023/04/10 03:33:23;;;;;;;69.28;38.63;;;;;;;;;;5052821;28;20114;-70
2023/04/10 03:35:50;;;;;;;77.05;39.03;;;;;;;;;;5052825;28;20467;-70
2023/04/10 03:38:16;;;;;;;76.78;38.75;;;;;;;;;;5052697;28;20371;-71
2023/04/10 03:40:41;;;;;;;80.20;39.45;;;;;;;;;;5052691;28;20036;-71
2023/04/10 03:43:08;;;;;;;75.25;39.72;;;;;;;;;;5052400;28;20442;-70
2023/04/10 03:45:34;;;;;;;75.10;39.75;;;;;;;;;;5052898;28;20029;-71
2023/04/10 03:47:59;;;;;;;72.00;37.90;;;;;;;;;;5052650;28;20029;-70
2023/04/10 03:50:25;;;;;;;73.68;38.78;;;;;;;;;;5052497;28;20105;-69
2023/04/10 03:52:51;;;;;;;74.68;39.70;;;;;;;;;;5052530;28;20025;-70
2023/04/10 03:55:18;;;;;;;75.70;39.30;;;;;;;;;;5052635;28;20386;-71
2023/04/10 03:57:47;;;;;;;72.43;37.55;;;;;;;;;;5052513;28;20071;-71
2023/04/10 04:00:13;;;;;;;71.72;37.70;;;;;;;;;;5052880;28;20025;-71
2023/04/10 04:02:39;;;;;;;80.00;40.53;;;;;;;;;;5052408;28;20029;-71
2023/04/10 04:05:05;;;;;;;76.60;39.38;;;;;;;;;;5052656;28;20400;-71
2023/04/10 04:07:31;;;;;;;75.85;39.63;;;;;;;;;;5052398;28;20031;-71
2023/04/10 04:09:57;;;;;;;73.35;39.22;;;;;;;;;;5052375;28;20500;-71
2023/04/10 04:12:23;;;;;;;69.95;39.25;;;;;;;;;;5051970;28;20017;-69
2023/04/10 04:14:49;;;;;;;75.13;39.13;;;;;;;;;;5052395;28;20408;-70
2023/04/10 04:17:15;;;;;;;81.85;39.88;;;;;;;;;;5034355;28;20219;-70
2023/04/10 04:19:41;;;;;;;75.05;40.67;;;;;;;;;;5052172;28;20024;-70
2023/04/10 04:22:07;;;;;;;76.60;39.70;;;;;;;;;;5051475;28;20024;-70
2023/04/10 04:24:33;;;;;;;71.93;39.40;;;;;;;;;;5052133;28;20052;-70
2023/04/10 04:27:00;;;;;;;77.82;39.65;;;;;;;;;;5052030;28;20024;-73
2023/04/10 04:29:26;;;;;;;76.30;40.40;;;;;;;;;;5052165;28;20024;-73
2023/04/10 04:31:52;;;;;;;74.80;38.88;;;;;;;;;;5051837;28;20025;-70
2023/04/10 04:34:18;;;;;;;77.25;39.95;;;;;;;;;;5052069;28;20079;-69
2023/04/10 04:36:44;;;;;;;79.28;40.38;;;;;;;;;;5052082;28;20017;-70
2023/04/10 04:39:10;;;;;;;75.57;39.75;;;;;;;;;;5051739;28;20021;-70
2023/04/10 04:41:36;;;;;;;78.25;40.08;;;;;;;;;;5051811;28;20025;-70
2023/04/10 04:44:02;;;;;;;76.88;40.90;;;;;;;;;;5051668;28;20029;-71
2023/04/10 04:46:28;;;;;;;75.85;40.28;;;;;;;;;;5051753;28;20071;-71
2023/04/10 04:48:54;;;;;;;76.15;38.90;;;;;;;;;;5051644;28;20040;-70
2023/04/10 04:51:20;;;;;;;77.40;40.88;;;;;;;;;;5052257;28;20029;-71
2023/04/10 04:53:46;;;;;;;78.38;40.65;;;;;;;;;;5051259;28;20104;-71
2023/04/10 04:56:12;;;;;;;80.43;40.63;;;;;;;;;;5051459;28;20025;-75
2023/04/10 04:58:38;;;;;;;81.55;41.13;;;;;;;;;;5051598;28;20174;-73
2023/04/10 05:01:04;;;;;;;76.63;40.50;;;;;;;;;;5060266;28;20040;-72
2023/04/10 05:03:30;;;;;;;78.88;39.83;;;;;;;;;;5059908;28;20513;-70
2023/04/10 05:05:56;;;;;;;77.43;40.45;;;;;;;;;;5065741;28;20119;-71
2023/04/10 05:08:22;;;;;;;77.53;40.70;;;;;;;;;;5062189;28;20024;-71
2023/04/10 05:10:48;;;;;;;73.28;40.50;;;;;;;;;;5065680;28;20044;-71
2023/04/10 05:13:16;;;;;;;78.10;40.55;;;;;;;;;;5059773;28;20118;-71
2023/04/10 05:15:42;;;;;;;74.32;39.47;;;;;;;;;;5063226;28;20502;-72
2023/04/10 05:18:08;;;;;;;76.05;39.58;;;;;;;;;;5060910;28;20112;-71
2023/04/10 05:20:34;;;;;;;75.97;39.65;;;;;;;;;;5063590;28;20112;-71
2023/04/10 05:23:00;;;;;;;77.78;39.50;;;;;;;;;;5059094;28;20044;-71
2023/04/10 05:25:26;;;;;;;85.40;41.83;;;;;;;;;;5067525;28;20040;-71
2023/04/10 05:27:52;;;;;;;75.38;39.80;;;;;;;;;;5059561;28;20025;-71
2023/04/10 05:30:18;;;;;;;74.65;39.38;;;;;;;;;;5061769;28;20427;-71
2023/04/10 05:32:45;;;;;;;71.65;38.45;;;;;;;;;;5059825;28;20104;-70
2023/04/10 05:35:11;;;;;;;77.15;41.30;;;;;;;;;;5065528;28;20386;-71
2023/04/10 05:37:37;;;;;;;74.93;39.03;;;;;;;;;;5064961;28;20474;-71
2023/04/10 05:40:03;;;;;;;77.18;41.40;;;;;;;;;;5069995;28;20029;-72
2023/04/10 05:42:29;;;;;;;84.55;42.47;;;;;;;;;;5063407;28;20036;-71
2023/04/10 05:44:55;;;;;;;82.95;40.30;;;;;;;;;;5065824;28;20033;-72
2023/04/10 05:47:21;;;;;;;71.85;37.92;;;;;;;;;;5067313;28;20035;-70
2023/04/10 05:49:47;;;;;;;70.57;38.83;;;;;;;;;;5064688;28;20025;-71
2023/04/10 05:52:13;;;;;;;71.03;38.70;;;;;;;;;;5066403;28;20024;-72
2023/04/10 05:54:39;;;;;;;74.95;39.00;;;;;;;;;;5066214;28;20457;-72
2023/04/10 05:57:05;;;;;;;71.72;39.63;;;;;;;;;;5066288;28;20036;-71
2023/04/10 05:59:31;;;;;;;78.43;39.83;;;;;;;;;;5061316;28;20051;-71
2023/04/10 06:01:57;;;;;;;73.72;40.10;;;;;;;;;;5066615;28;20033;-73
2023/04/10 06:04:23;;;;;;;74.82;40.65;;;;;;;;;;5069004;28;20029;-71
2023/04/10 06:06:49;;;;;;;74.35;39.80;;;;;;;;;;5066326;28;20351;-71
2023/04/10 06:09:15;;;;;;;71.45;38.45;;;;;;;;;;5061086;28;20028;-71
2023/04/10 06:11:41;;;;;;;72.82;39.20;;;;;;;;;;5063835;28;20461;-71
2023/04/10 06:14:07;;;;;;;70.97;38.55;;;;;;;;;;5054337;28;20079;-70
2023/04/10 06:16:33;;;;;;;75.35;39.38;;;;;;;;;;5054935;28;20029;-71
2023/04/10 06:18:59;;;;;;;74.78;41.00;;;;;;;;;;5054370;28;20025;-71
2023/04/10 06:21:25;;;;;;;82.03;40.97;;;;;;;;;;5054779;28;20394;-70
2023/04/10 06:23:51;;;;;;;71.97;38.78;;;;;;;;;;5054294;28;20052;-71
2023/04/10 06:26:17;;;;;;;73.78;39.35;;;;;;;;;;5054615;28;20100;-70
2023/04/10 06:28:43;;;;;;;81.78;40.20;;;;;;;;;;5054267;28;20479;-71
2023/04/10 06:31:10;;;;;;;70.78;39.10;;;;;;;;;;5054418;28;20367;-70
2023/04/10 06:33:36;;;;;;;74.72;39.65;;;;;;;;;;5054463;28;20498;-76
2023/04/10 06:36:02;;;;;;;72.80;38.30;;;;;;;;;;5054821;28;20025;-70
2023/04/10 06:38:29;;;;;;;74.18;38.25;;;;;;;;;;5054232;28;20025;-72
2023/04/10 06:40:55;;;;;;;76.65;38.50;;;;;;;;;;5054239;28;20107;-70
2023/04/10 06:43:21;;;;;;;82.43;39.25;;;;;;;;;;5053738;28;20539;-70
2023/04/10 06:45:47;;;;;;;72.88;37.72;;;;;;;;;;5053510;28;20036;-70
2023/04/10 06:48:13;;;;;;;68.38;36.85;;;;;;;;;;5053836;28;20370;-70
2023/04/10 06:50:39;;;;;;;77.47;41.30;;;;;;;;;;5054218;28;20106;-73
2023/04/10 06:53:05;;;;;;;72.57;38.75;;;;;;;;;;5053671;28;20029;-72
2023/04/10 06:55:31;;;;;;;67.15;37.25;;;;;;;;;;5053878;28;20110;-72
2023/04/10 06:57:57;;;;;;;67.63;37.80;;;;;;;;;;5053600;28;20033;-72
2023/04/10 07:00:24;;;;;;;72.03;39.10;;;;;;;;;;5054595;28;20033;-72
2023/04/10 07:02:50;;;;;;;68.78;36.97;;;;;;;;;;5053617;28;20449;-72
2023/04/10 07:05:16;;;;;;;64.00;36.55;;;;;;;;;;5054725;28;20049;-73
2023/04/10 07:07:42;;;;;;;64.88;35.78;;;;;;;;;;5053518;28;20025;-71
2023/04/10 07:10:09;;;;;;;67.55;35.05;;;;;;;;;;5054389;28;20483;-73
2023/04/10 07:12:35;;;;;;;59.88;34.03;;;;;;;;;;5055966;28;20498;-73
2023/04/10 07:15:01;;;;;;;55.53;31.83;;;;;;;;;;5052295;28;20074;-71
2023/04/10 07:17:27;;;;;;;60.30;33.25;;;;;;;;;;5052644;28;20033;-71
2023/04/10 07:19:53;;;;;;;59.45;32.58;;;;;;;;;;5055804;28;20031;-71
2023/04/10 07:22:19;;;;;;;61.92;32.67;;;;;;;;;;5035732;28;20021;-72
2023/04/10 07:24:45;;;;;;;59.90;33.47;;;;;;;;;;5058473;28;20032;-71
2023/04/10 07:27:11;;;;;;;56.63;33.00;;;;;;;;;;5073173;28;20024;-71
2023/04/10 07:29:37;;;;;;;57.53;32.47;;;;;;;;;;5072889;28;20039;-70
2023/04/10 07:32:04;;;;;;;57.08;31.05;;;;;;;;;;5072638;28;20028;-71
2023/04/10 07:34:30;;;;;;;55.42;31.10;;;;;;;;;;5073025;28;20033;-70
2023/04/10 07:36:56;;;;;;;49.05;30.02;;;;;;;;;;5072329;28;20059;-70
2023/04/10 07:39:22;;;;;;;55.33;31.20;;;;;;;;;;5072701;28;20052;-70
2023/04/10 07:41:48;;;;;;;52.08;29.77;;;;;;;;;;5072356;28;20099;-71
2023/04/10 07:44:14;;;;;;;52.08;29.85;;;;;;;;;;5072507;28;20053;-71
2023/04/10 07:46:40;;;;;;;48.17;29.15;;;;;;;;;;5072254;28;20036;-71
2023/04/10 07:49:06;;;;;;;49.00;29.63;;;;;;;;;;5072609;28;20405;-71
2023/04/10 07:51:32;;;;;;;49.58;30.13;;;;;;;;;;5071553;28;20027;-70
2023/04/10 07:53:58;;;;;;;49.42;28.92;;;;;;;;;;5072175;28;20024;-71
2023/04/10 07:56:24;;;;;;;48.83;30.17;;;;;;;;;;5052884;28;20119;-71
2023/04/10 07:58:51;;;;;;;49.28;28.52;;;;;;;;;;5072322;28;20139;-71
2023/04/10 08:01:17;;;;;;;49.25;28.90;;;;;;;;;;5071811;28;20028;-71
2023/04/10 08:03:44;;;;;;;46.83;28.45;;;;;;;;;;5072003;28;20382;-71
2023/04/10 08:06:10;;;;;;;50.17;27.50;;;;;;;;;;5071871;28;20048;-71
2023/04/10 08:08:37;;;;;;;46.63;27.75;;;;;;;;;;5072159;28;20051;-71
2023/04/10 08:11:04;;;;;;;45.00;27.20;;;;;;;;;;5072263;28;20025;-73
2023/04/10 08:13:30;;;;;;;41.33;26.38;;;;;;;;;;5071969;28;20031;-71
2023/04/10 08:15:56;;;;;;;47.28;26.73;;;;;;;;;;5072365;28;20103;-72
2023/04/10 08:18:21;;;;;;;45.20;25.75;;;;;;;;;;5072052;28;20096;-71
2023/04/10 08:20:47;;;;;;;44.63;26.63;;;;;;;;;;5072220;28;20020;-72
2023/04/10 08:23:13;;;;;;;41.13;25.55;;;;;;;;;;5071864;28;20028;-72
2023/04/10 08:25:39;;;;;;;41.28;26.48;;;;;;;;;;5072026;28;20030;-72
2023/04/10 08:28:05;;;;;;;42.72;25.05;;;;;;;;;;5071732;28;20029;-72
2023/04/10 08:30:31;;;;;;;41.53;23.75;;;;;;;;;;5071990;28;20541;-71
2023/04/10 08:32:57;;;;;;;42.08;25.60;;;;;;;;;;5071611;28;20080;-71
2023/04/10 08:35:23;;;;;;;43.65;26.80;;;;;;;;;;5071858;28;20107;-72
2023/04/10 08:37:49;;;;;;;39.47;25.15;;;;;;;;;;5071655;28;20029;-73
2023/04/10 08:40:15;;;;;;;39.45;25.13;;;;;;;;;;5071894;28;20089;-75
2023/04/10 08:42:41;;;;;;;39.30;24.83;;;;;;;;;;5071732;28;20108;-76
2023/04/10 08:45:08;;;;;;;40.30;25.27;;;;;;;;;;5071702;28;20374;-75
2023/04/10 08:47:37;;;;;;;39.53;25.08;;;;;;;;;;5053687;28;20020;-77
2023/04/10 08:50:06;;;;;;;41.08;24.80;;;;;;;;;;5071792;28;20012;-74
2023/04/10 08:52:35;;;;;;;38.83;23.80;;;;;;;;;;5071553;28;20122;-76
2023/04/10 08:55:05;;;;;;;38.53;22.85;;;;;;;;;;5071783;28;20042;-74
2023/04/10 08:57:31;;;;;;;34.45;22.05;;;;;;;;;;5071304;28;20062;-75
2023/04/10 08:59:58;;;;;;;47.78;29.33;;;;;;;;;;5071521;28;20029;-77
2023/04/10 09:02:24;;;;;;;36.95;23.50;;;;;;;;;;5072180;28;20390;-71
2023/04/10 09:04:53;;;;;;;34.30;22.42;;;;;;;;;;5071884;28;20024;-71
2023/04/10 09:07:19;;;;;;;35.85;23.38;;;;;;;;;;5071842;28;20429;-71
2023/04/10 09:09:45;;;;;;;36.08;23.42;;;;;;;;;;5071675;28;20024;-72
2023/04/10 09:12:13;;;;;;;34.72;22.08;;;;;;;;;;5071872;28;20020;-71
2023/04/10 09:14:40;;;;;;;36.28;22.52;;;;;;;;;;5071496;28;20482;-70
2023/04/10 09:17:12;;;;;;;37.70;23.98;;;;;;;;;;5071352;28;20028;-71
2023/04/10 09:19:38;;;;;;;32.88;21.42;;;;;;;;;;5071554;28;20612;-70
2023/04/10 09:22:04;;;;;;;31.73;19.88;;;;;;;;;;5071244;28;20025;-71
2023/04/10 09:24:30;;;;;;;33.33;20.10;;;;;;;;;;5071379;28;20040;-71
2023/04/10 09:26:56;;;;;;;30.00;19.55;;;;;;;;;;5071334;28;20020;-71
2023/04/10 09:29:22;;;;;;;28.08;17.60;;;;;;;;;;5071392;28;20023;-73
2023/04/10 09:31:50;;;;;;;26.15;17.42;;;;;;;;;;5071244;28;20057;-71
2023/04/10 09:34:16;;;;;;;25.08;17.23;;;;;;;;;;5071798;28;20082;-72
2023/04/10 09:36:42;;;;;;;24.48;15.90;;;;;;;;;;5071353;28;20458;-72
2023/04/10 09:39:10;;;;;;;24.25;16.58;;;;;;;;;;5071593;28;20450;-75
2023/04/10 09:41:46;;;;;;;27.98;17.52;;;;;;;;;;5072709;28;20436;-77
2023/04/10 09:44:12;;;;;;;25.92;16.50;;;;;;;;;;5077670;28;20363;-76
2023/04/10 09:46:38;;;;;;;26.80;16.40;;;;;;;;;;5073726;28;20024;-75
2023/04/10 09:49:06;;;;;;;28.38;17.23;;;;;;;;;;5070938;28;20028;-70
2023/04/10 09:51:35;;;;;;;28.80;19.05;;;;;;;;;;5070930;28;20025;-71
2023/04/10 09:54:02;;;;;;;28.95;18.33;;;;;;;;;;5070708;28;20020;-72
2023/04/10 09:56:33;;;;;;;30.52;18.15;;;;;;;;;;5070981;28;20031;-72
2023/04/10 09:59:03;;;;;;;28.60;18.58;;;;;;;;;;5071042;28;20029;-71
2023/04/10 10:01:33;;;;;;;26.58;17.52;;;;;;;;;;5071108;28;20028;-71
2023/04/10 10:04:01;;;;;;;26.85;16.90;;;;;;;;;;5070498;28;20029;-72
2023/04/10 10:06:28;;;;;;;28.08;17.65;;;;;;;;;;5071051;28;20040;-72
2023/04/10 10:08:54;;;;;;;27.85;17.80;;;;;;;;;;5070592;28;20020;-72
2023/04/10 10:11:21;;;;;;;22.55;15.18;;;;;;;;;;5070871;28;20359;-71
2023/04/10 10:13:51;;;;;;;27.05;16.08;;;;;;;;;;5070781;28;20143;-70
2023/04/10 10:16:29;;;;;;;20.90;13.80;;;;;;;;;;5070906;28;20032;-71
2023/04/10 10:18:55;;;;;;;24.17;14.05;;;;;;;;;;5070700;28;20057;-70
2023/04/10 10:21:22;;;;;;;21.95;12.82;;;;;;;;;;5073352;28;20071;-72
2023/04/10 10:23:52;;;;;;;21.67;12.85;;;;;;;;;;5074311;28;20052;-70
2023/04/10 10:26:20;;;;;;;21.10;11.95;;;;;;;;;;5074484;28;20033;-71
2023/04/10 10:28:46;;;;;;;20.48;11.35;;;;;;;;;;5074096;28;20024;-71
2023/04/10 10:31:13;;;;;;;14.85;11.00;;;;;;;;;;5074169;28;20466;-71
2023/04/10 10:33:39;;;;;;;15.15;10.68;;;;;;;;;;5074196;28;20052;-70
2023/04/10 10:36:06;;;;;;;15.50;10.90;;;;;;;;;;5074194;28;20062;-70
2023/04/10 10:38:33;;;;;;;14.85;10.77;;;;;;;;;;5074124;28;20074;-71
2023/04/10 10:40:59;;;;;;;18.27;10.77;;;;;;;;;;5074134;28;20029;-71
2023/04/10 10:43:31;;;;;;;16.23;10.85;;;;;;;;;;5073691;28;20451;-70
2023/04/10 10:46:01;;;;;;;18.45;11.20;;;;;;;;;;5073920;28;20035;-71
2023/04/10 10:48:27;;;;;;;16.15;10.75;;;;;;;;;;5073903;28;20413;-72
2023/04/10 10:50:58;;;;;;;18.08;9.93;;;;;;;;;;5074544;28;20045;-71
2023/04/10 10:53:33;;;;;;;15.35;10.20;;;;;;;;;;5074300;28;20490;-70
2023/04/10 10:55:59;;;;;;;14.55;9.63;;;;;;;;;;5074007;28;20040;-71
2023/04/10 10:58:44;;;;;;;15.40;10.10;;;;;;;;;;5073638;28;20032;-72
2023/04/10 11:01:10;;;;;;;14.05;10.00;;;;;;;;;;5073944;28;20095;-71
2023/04/10 11:03:36;;;;;;;13.68;9.45;;;;;;;;;;5073753;28;20059;-71
2023/04/10 11:06:05;;;;;;;16.80;9.73;;;;;;;;;;5073781;28;20029;-71
2023/04/10 11:08:46;;;;;;;15.95;11.05;;;;;;;;;;5073234;28;20113;-72
2023/04/10 11:11:14;;;;;;;15.27;10.02;;;;;;;;;;5055402;28;20013;-71
2023/04/10 11:13:41;;;;;;;12.63;8.88;;;;;;;;;;5073098;28;20020;-71
2023/04/10 11:16:11;;;;;;;12.20;8.10;;;;;;;;;;5073309;28;20017;-71
2023/04/10 11:18:46;;;;;;;13.90;8.75;;;;;;;;;;5073353;28;20077;-72
2023/04/10 11:21:13;;;;;;;11.65;7.60;;;;;;;;;;5073355;28;20036;-71
2023/04/10 11:23:59;;;;;;;11.73;7.63;;;;;;;;;;5073093;28;20112;-72
2023/04/10 11:29:18;;;;;;;10.20;7.22;;;;;;;;;;5073183;28;20116;-72
2023/04/10 11:31:44;;;;;;;10.13;7.83;;;;;;;;;;5072908;28;20097;-71
2023/04/10 11:34:11;;;;;;;9.65;7.60;;;;;;;;;;5073359;28;20561;-73
2023/04/10 11:36:40;;;;;;;18.67;11.23;;;;;;;;;;5072755;28;20027;-72
2023/04/10 11:39:07;;;;;;;9.90;7.60;;;;;;;;;;5071872;28;20373;-72
2023/04/10 11:41:37;;;;;;;18.75;10.65;;;;;;;;;;5069766;28;20039;-72
2023/04/10 11:44:05;;;;;;;12.90;8.23;;;;;;;;;;5069811;28;20035;-72
2023/04/10 11:46:31;;;;;;;7.85;6.53;;;;;;;;;;5056165;28;20048;-71
2023/04/10 11:49:01;;;;;;;8.45;6.70;;;;;;;;;;5053330;28;20021;-71
2023/04/10 11:51:27;;;;;;;10.52;8.15;;;;;;;;;;5051532;28;20029;-72
2023/04/10 11:54:09;;;;;;;8.07;6.20;;;;;;;;;;5061495;28;20027;-72
2023/04/10 11:56:36;;;;;;;8.98;6.70;;;;;;;;;;5051254;28;20048;-71
2023/04/10 11:59:06;;;;;;;10.75;8.13;;;;;;;;;;5059999;28;20166;-70
2023/04/10 12:01:33;;;;;;;11.05;7.25;;;;;;;;;;5061453;28;20028;-70
2023/04/10 12:04:00;;;;;;;8.80;5.85;;;;;;;;;;5051582;28;20024;-69
2023/04/10 12:06:26;;;;;;;6.80;5.65;;;;;;;;;;5058134;28;20035;-71
2023/04/10 12:08:52;;;;;;;7.75;5.60;;;;;;;;;;5054675;28;20391;-71
2023/04/10 12:11:20;;;;;;;11.13;6.53;;;;;;;;;;5051233;28;20029;-72
2023/04/10 12:13:46;;;;;;;8.90;6.47;;;;;;;;;;5050517;28;20021;-71
2023/04/10 12:16:13;;;;;;;9.57;6.65;;;;;;;;;;5051672;28;20029;-72
2023/04/10 12:18:39;;;;;;;12.80;6.32;;;;;;;;;;5064507;28;20052;-71
2023/04/10 12:21:06;;;;;;;9.68;6.90;;;;;;;;;;5048905;28;20039;-71
2023/04/10 12:23:32;;;;;;;10.50;6.63;;;;;;;;;;5051937;28;20379;-72
2023/04/10 12:26:06;;;;;;;9.00;6.85;;;;;;;;;;5051788;28;20036;-72
2023/04/10 12:28:32;;;;;;;;;;;;;;;;;;5051927;28;20021;-70
2023/04/10 12:30:58;;;;;;;7.85;6.00;;;;;;;;;;5052323;28;19908;-74
2023/04/10 12:33:25;;;;;;;12.70;5.95;;;;;;;;;;5051703;28;20040;-72
2023/04/10 12:35:53;;;;;;;11.15;6.30;;;;;;;;;;5053082;28;20029;-72
2023/04/10 12:38:35;;;;;;;8.00;6.05;;;;;;;;;;5051800;28;20032;-72
2023/04/10 12:41:01;;;;;;;7.35;5.43;;;;;;;;;;5051443;28;20028;-71
2023/04/10 12:43:31;;;;;;;9.73;5.70;;;;;;;;;;5050732;28;20509;-72
2023/04/10 12:45:57;;;;;;;6.70;5.18;;;;;;;;;;5051595;28;20031;-70
2023/04/10 12:48:24;;;;;;;7.65;5.70;;;;;;;;;;5051357;28;20032;-71
2023/04/10 12:50:50;;;;;;;7.50;5.07;;;;;;;;;;5051314;28;20029;-71
2023/04/10 12:53:16;;;;;;;7.97;5.25;;;;;;;;;;5051169;28;20483;-73
2023/04/10 12:55:56;;;;;;;12.98;6.55;;;;;;;;;;5051965;28;20089;-72
2023/04/10 12:58:26;;;;;;;9.18;5.35;;;;;;;;;;5051238;28;20529;-72
2023/04/10 13:00:53;;;;;;;11.40;5.47;;;;;;;;;;5051904;28;20383;-71
2023/04/10 13:03:19;;;;;;;9.95;5.45;;;;;;;;;;5033375;28;20100;-71
2023/04/10 13:05:45;;;;;;;8.23;4.78;;;;;;;;;;5051680;28;20040;-72
2023/04/10 13:08:11;;;;;;;7.78;4.38;;;;;;;;;;5051428;28;20033;-71
2023/04/10 13:10:37;;;;;;;7.68;4.05;;;;;;;;;;5070297;28;20039;-71
2023/04/10 13:13:05;;;;;;;7.65;4.53;;;;;;;;;;5062982;28;20017;-71
2023/04/10 13:15:33;;;;;;;10.02;4.38;;;;;;;;;;5051068;28;20045;-73
2023/04/10 13:17:59;;;;;;;5.93;4.22;;;;;;;;;;5067680;28;20389;-70
2023/04/10 13:20:25;;;;;;;8.98;4.20;;;;;;;;;;5071374;28;20029;-72
2023/04/10 13:22:51;;;;;;;8.48;4.65;;;;;;;;;;5071550;28;20494;-70
2023/04/10 13:25:17;;;;;;;8.77;4.60;;;;;;;;;;5062545;28;20029;-71
2023/04/10 13:27:43;;;;;;;10.82;4.70;;;;;;;;;;5051329;28;20060;-70
2023/04/10 13:30:09;;;;;;;7.72;5.05;;;;;;;;;;5051453;28;20431;-73
2023/04/10 13:32:35;;;;;;;6.60;4.97;;;;;;;;;;5051366;28;20107;-74
2023/04/10 13:35:01;;;;;;;7.15;4.80;;;;;;;;;;5051855;28;20056;-75
2023/04/10 13:37:27;;;;;;;10.27;5.40;;;;;;;;;;5052514;28;20064;-74
2023/04/10 13:39:53;;;;;;;13.15;5.03;;;;;;;;;;5052028;28;20079;-76
2023/04/10 13:42:19;;;;;;;9.57;5.20;;;;;;;;;;5051845;28;20017;-74
2023/04/10 13:44:45;;;;;;;9.15;4.97;;;;;;;;;;5051542;28;20541;-77
2023/04/10 13:47:11;;;;;;;7.88;4.50;;;;;;;;;;5051415;28;20132;-74
2023/04/10 13:49:38;;;;;;;6.43;5.03;;;;;;;;;;5051784;28;20437;-75
2023/04/10 13:52:04;;;;;;;12.63;5.80;;;;;;;;;;5051110;28;20068;-76
2023/04/10 13:54:30;;;;;;;7.32;4.80;;;;;;;;;;5051622;28;20022;-73
2023/04/10 13:56:57;;;;;;;11.27;6.15;;;;;;;;;;5055322;28;20033;-73
2023/04/10 13:59:24;;;;;;;11.98;5.25;;;;;;;;;;5055977;28;20382;-73
2023/04/10 14:01:51;;;;;;;9.07;4.90;;;;;;;;;;5058863;28;20017;-76
2023/04/10 14:04:17;;;;;;;13.85;6.65;;;;;;;;;;5056195;28;20383;-73
2023/04/10 14:06:43;;;;;;;10.10;5.47;;;;;;;;;;5058263;28;20171;-73
2023/04/10 14:09:09;;;;;;;6.47;5.07;;;;;;;;;;5067722;28;20163;-73
2023/04/10 14:11:35;;;;;;;9.25;4.97;;;;;;;;;;5064358;28;20378;-71
2023/04/10 14:14:01;;;;;;;12.80;5.22;;;;;;;;;;5062357;28;20055;-71
2023/04/10 14:16:27;;;;;;;7.32;5.40;;;;;;;;;;5065563;28;20079;-72
2023/04/10 14:18:53;;;;;;;7.72;5.53;;;;;;;;;;5062483;28;20502;-71
2023/04/10 14:21:19;;;;;;;9.85;5.60;;;;;;;;;;5062564;28;20428;-71
2023/04/10 14:23:45;;;;;;;8.15;5.70;;;;;;;;;;5070121;28;20086;-72